Time;durP1;ratioP1;P1;durP2;ratioP2;P2;SDS_P1;SDS_P2;PMS_P1;PMS_P2;Temp;Humidity;BMP_temperature;BMP_pressure;BME280_temperature;BME280_humidity;BME280_pressure;Samples;Min_cycle;Max_cycle;Signal;HPM_P1;HPM_P2
2021/08/15 00:01:36;;;;;;;;;;;;;;;21.66;69.42;98280.88;1735889;82;20809;-87
2021/08/15 00:04:05;;;;;;;;;;;;;;;21.64;69.53;98280.25;1732170;81;25036;-87
2021/08/15 00:06:31;;;;;;;;;;;;;;;21.63;69.64;98275.93;1738247;81;22931;-86
2021/08/15 00:08:57;;;;;;;;;;;;;;;21.60;69.76;98278.14;1733010;82;26757;-87
2021/08/15 00:11:26;;;;;;;;;;;;;;;21.53;69.86;98271.37;1734683;81;24649;-89
2021/08/15 00:13:52;;;;;;;;;;;;;;;21.51;70.00;98269.38;1729540;81;20220;-88
2021/08/15 00:16:18;;;;;;;;;;;;;;;21.48;70.10;98271.58;1741073;81;25788;-88
2021/08/15 00:18:44;;;;;;;;;;;;;;;21.43;70.21;98265.97;1733277;81;21902;-88
2021/08/15 00:21:12;;;;;;;;;;;;;;;21.40;70.31;98268.47;1770735;80;26124;-88
2021/08/15 00:23:38;;;;;;;;;;;;;;;21.36;70.40;98268.52;1765799;80;25492;-88
2021/08/15 00:26:04;;;;;;;;;;;;;;;21.33;70.50;98266.20;1769990;80;20302;-89
2021/08/15 00:28:30;;;;;;;;;;;;;;;21.31;70.63;98272.72;1759882;80;25023;-89
2021/08/15 00:30:59;;;;;;;;;;;;;;;21.29;70.74;98271.56;1761228;79;22258;-89
2021/08/15 00:33:25;;;;;;;;;;;;;;;21.32;70.88;98270.39;1733217;82;26109;-89
2021/08/15 00:35:54;;;;;;;;;;;;;;;21.34;71.01;98273.18;1730574;82;20827;-88
2021/08/15 00:38:20;;;;;;;;;;;;;;;21.38;71.11;98275.00;1730158;82;20263;-89
2021/08/15 00:40:46;;;;;;;;;;;;;;;21.42;71.21;98269.63;1731341;82;25033;-89
2021/08/15 00:43:12;;;;;;;;;;;;;;;21.44;71.28;98270.30;1732483;82;21976;-88
2021/08/15 00:45:38;;;;;;;;;;;;;;;21.42;71.34;98265.64;1714715;82;25897;-85
2021/08/15 00:48:08;;;;;;;;;;;;;;;21.38;71.40;98268.34;1730717;82;25145;-84
2021/08/15 00:50:35;;;;;;;;;;;;;;;21.35;71.48;98259.37;1763501;80;20292;-84
2021/08/15 00:53:01;;;;;;;;;;;;;;;21.39;71.53;98258.83;1763402;80;25211;-84
2021/08/15 00:55:27;;;;;;;;;;;;;;;21.42;71.57;98258.98;1736775;81;20404;-84
2021/08/15 00:57:53;;;;;;;;;;;;;;;21.45;71.65;98258.61;1767868;80;26053;-84
2021/08/15 01:00:22;;;;;;;;;;;;;;;21.45;71.70;98258.61;1768898;80;24455;-84
2021/08/15 01:02:48;;;;;;;;;;;;;;;21.45;71.77;98258.11;1739090;82;20240;-84
2021/08/15 01:05:14;;;;;;;;;;;;;;;21.42;71.79;98256.32;1736872;81;25003;-84
2021/08/15 01:07:44;;;;;;;;;;;;;;;21.38;71.88;98253.70;1723610;81;21842;-84
2021/08/15 01:10:17;;;;;;;;;;;;;;;21.30;71.92;98253.26;1724935;81;26164;-84
2021/08/15 01:12:45;;;;;;;;;;;;;;;21.23;71.96;98253.64;1723430;82;23893;-85
2021/08/15 01:15:15;;;;;;;;;;;;;;;21.16;72.04;98255.37;1731227;82;20220;-84
2021/08/15 01:17:41;;;;;;;;;;;;;;;21.09;72.11;98255.72;1736203;82;24738;-87
2021/08/15 01:20:10;;;;;;;;;;;;;;;20.98;72.20;98251.64;1736993;82;21332;-87
2021/08/15 01:22:43;;;;;;;;;;;;;;;20.91;72.29;98252.02;1733624;81;25988;-87
2021/08/15 01:25:10;;;;;;;;;;;;;;;20.93;72.44;98250.02;1738713;81;24575;-87
2021/08/15 01:27:38;;;;;;;;;;;;;;;21.01;72.57;98253.94;1734883;82;20243;-85
2021/08/15 01:30:05;;;;;;;;;;;;;;;21.09;72.66;98251.23;1731839;82;26552;-84
2021/08/15 01:32:31;;;;;;;;;;;;;;;21.10;72.71;98254.22;1736671;81;21990;-85
2021/08/15 01:34:59;;;;;;;;;;;;;;;21.11;72.75;98243.88;1733647;82;25950;-85
2021/08/15 01:37:25;;;;;;;;;;;;;;;21.07;72.82;98247.91;1737494;81;24856;-84
2021/08/15 01:39:54;;;;;;;;;;;;;;;21.08;72.85;98249.57;1734033;81;20336;-84
2021/08/15 01:42:20;;;;;;;;;;;;;;;21.03;72.87;98243.95;1733078;81;20291;-85
2021/08/15 01:44:46;;;;;;;;;;;;;;;21.04;72.94;98247.45;1735546;81;21980;-85
2021/08/15 01:47:12;;;;;;;;;;;;;;;21.03;73.00;98242.63;1734361;81;22270;-85
2021/08/15 01:49:38;;;;;;;;;;;;;;;21.03;73.08;98240.47;1732447;81;20240;-85
2021/08/15 01:52:04;;;;;;;;;;;;;;;21.02;73.14;98238.80;1734934;81;20744;-86
2021/08/15 01:54:30;;;;;;;;;;;;;;;20.95;73.19;98235.22;1735347;81;25063;-86
2021/08/15 01:56:57;;;;;;;;;;;;;;;20.88;73.25;98237.75;1713192;82;20255;-86
2021/08/15 01:59:26;;;;;;;;;;;;;;;20.91;73.31;98234.72;1734738;81;26148;-85
2021/08/15 02:01:51;;;;;;;;;;;;;;;20.93;73.41;98233.23;1731347;81;25271;-87
2021/08/15 02:04:18;;;;;;;;;;;;;;;20.92;73.50;98231.56;1731720;82;20394;-87
2021/08/15 02:06:44;;;;;;;;;;;;;;;21.00;73.57;98228.86;1731233;81;24984;-87
2021/08/15 02:09:10;;;;;;;;;;;;;;;21.08;73.62;98226.95;1735353;82;20412;-87
2021/08/15 02:11:37;;;;;;;;;;;;;;;21.04;73.66;98228.82;1735712;81;26932;-86
2021/08/15 02:14:03;;;;;;;;;;;;;;;21.10;73.71;98232.10;1736199;81;24443;-87
2021/08/15 02:16:29;;;;;;;;;;;;;;;21.11;73.72;98226.58;1735675;81;20990;-87
2021/08/15 02:18:57;;;;;;;;;;;;;;;21.04;73.73;98223.00;1737440;81;20330;-87
2021/08/15 02:21:23;;;;;;;;;;;;;;;21.05;73.79;98217.17;1737326;82;20325;-87
2021/08/15 02:23:49;;;;;;;;;;;;;;;20.93;73.78;98222.08;1736245;81;26052;-86
2021/08/15 02:26:16;;;;;;;;;;;;;;;20.82;73.84;98216.67;1733310;81;24481;-86
2021/08/15 02:28:42;;;;;;;;;;;;;;;20.76;73.91;98215.22;1735911;81;20239;-86
2021/08/15 02:31:08;;;;;;;;;;;;;;;20.73;73.97;98215.05;1738150;81;25139;-86
2021/08/15 02:33:34;;;;;;;;;;;;;;;20.73;74.04;98208.41;1734962;81;23148;-86
2021/08/15 02:36:00;;;;;;;;;;;;;;;20.69;74.12;98204.95;1736837;81;25932;-86
2021/08/15 02:38:26;;;;;;;;;;;;;;;20.74;74.21;98206.58;1734342;81;24433;-87
2021/08/15 02:40:52;;;;;;;;;;;;;;;20.88;74.31;98202.67;1731767;81;20335;-86
2021/08/15 02:43:18;;;;;;;;;;;;;;;20.92;74.37;98204.46;1733510;81;20260;-87
2021/08/15 02:45:44;;;;;;;;;;;;;;;20.95;74.38;98199.30;1738685;81;22003;-87
2021/08/15 02:48:10;;;;;;;;;;;;;;;21.03;74.42;98206.70;1732002;81;21023;-87
2021/08/15 02:50:36;;;;;;;;;;;;;;;21.07;74.43;98202.67;1732083;82;20443;-85
2021/08/15 02:53:02;;;;;;;;;;;;;;;21.15;74.44;98199.16;1737526;81;20331;-88
2021/08/15 02:55:28;;;;;;;;;;;;;;;21.20;74.46;98202.94;1726461;81;25187;-88
2021/08/15 02:57:54;;;;;;;;;;;;;;;21.15;74.45;98205.31;1718583;82;22066;-88
2021/08/15 03:00:20;;;;;;;;;;;;;;;21.13;74.47;98200.63;1716179;82;21155;-88
2021/08/15 03:02:46;;;;;;;;;;;;;;;21.09;74.49;98195.34;1719472;82;21016;-88
2021/08/15 03:05:19;;;;;;;;;;;;;;;21.07;74.47;98197.85;1718046;82;20225;-88
2021/08/15 03:07:46;;;;;;;;;;;;;;;21.07;74.50;98196.52;1719129;82;24979;-88
2021/08/15 03:10:15;;;;;;;;;;;;;;;20.99;74.50;98193.44;1718906;82;22851;-88
2021/08/15 03:12:40;;;;;;;;;;;;;;;20.98;74.50;98184.30;1721669;82;25608;-88
2021/08/15 03:15:06;;;;;;;;;;;;;;;20.93;74.54;98188.83;1715742;82;24532;-88
2021/08/15 03:17:32;;;;;;;;;;;;;;;20.85;74.56;98185.72;1717291;82;20420;-88
2021/08/15 03:19:58;;;;;;;;;;;;;;;20.77;74.59;98183.63;1721687;82;24941;-86
2021/08/15 03:22:24;;;;;;;;;;;;;;;20.65;74.63;98179.72;1720469;82;22202;-87
2021/08/15 03:24:50;;;;;;;;;;;;;;;20.54;74.68;98181.45;1717042;82;21019;-86
2021/08/15 03:27:16;;;;;;;;;;;;;;;20.43;74.76;98181.36;1724106;82;20315;-86
2021/08/15 03:29:42;;;;;;;;;;;;;;;20.41;74.86;98178.03;1713695;82;20287;-86
2021/08/15 03:32:08;;;;;;;;;;;;;;;20.40;74.94;98171.89;1716128;82;25030;-86
2021/08/15 03:34:34;;;;;;;;;;;;;;;20.40;75.04;98169.23;1714134;82;22088;-86
2021/08/15 03:37:00;;;;;;;;;;;;;;;20.38;75.17;98168.59;1717776;82;26779;-86
2021/08/15 03:39:30;;;;;;;;;;;;;;;20.46;75.28;98169.86;1715266;82;24428;-86
2021/08/15 03:41:58;;;;;;;;;;;;;;;20.41;75.34;98167.41;1718421;82;20441;-85
2021/08/15 03:44:22;;;;;;;;;;;;;;;20.43;75.42;98171.55;1715257;82;25846;-85
2021/08/15 03:46:48;;;;;;;;;;;;;;;20.45;75.49;98166.08;1719686;82;20837;-86
2021/08/15 03:49:16;;;;;;;;;;;;;;;20.58;75.58;98166.30;1716276;82;21034;-86
2021/08/15 03:51:42;;;;;;;;;;;;;;;20.65;75.64;98168.59;1716985;82;24483;-87
2021/08/15 03:54:08;;;;;;;;;;;;;;;20.58;75.67;98166.30;1716984;82;20229;-87
2021/08/15 03:56:34;;;;;;;;;;;;;;;20.53;75.72;98165.17;1715708;82;25045;-86
2021/08/15 03:59:01;;;;;;;;;;;;;;;20.55;75.77;98157.36;1716513;82;20303;-86
2021/08/15 04:01:29;;;;;;;;;;;;;;;20.52;75.80;98158.20;1711735;82;26861;-85
2021/08/15 04:03:55;;;;;;;;;;;;;;;20.52;75.88;98152.38;1719351;82;24509;-85
2021/08/15 04:06:21;;;;;;;;;;;;;;;20.58;75.95;98157.49;1718666;82;20312;-85
2021/08/15 04:08:51;;;;;;;;;;;;;;;20.67;76.01;98150.63;1720559;82;25680;-85
2021/08/15 04:11:18;;;;;;;;;;;;;;;20.77;76.05;98149.89;1718549;82;22006;-84
2021/08/15 04:13:44;;;;;;;;;;;;;;;20.80;76.07;98148.69;1720038;82;26088;-85
2021/08/15 04:16:10;;;;;;;;;;;;;;;20.83;76.09;98150.51;1724209;82;24430;-85
2021/08/15 04:18:36;;;;;;;;;;;;;;;20.81;76.12;98142.37;1697748;82;20416;-85
2021/08/15 04:21:02;;;;;;;;;;;;;;;20.86;76.15;98145.31;1719078;82;25257;-85
2021/08/15 04:23:30;;;;;;;;;;;;;;;20.86;76.18;98139.49;1719297;82;22072;-88
2021/08/15 04:25:56;;;;;;;;;;;;;;;20.75;76.20;98130.61;1695145;82;40388;-88
2021/08/15 04:28:23;;;;;;;;;;;;;;;20.83;76.26;98137.20;1715327;82;24460;-88
2021/08/15 04:30:49;;;;;;;;;;;;;;;20.94;76.33;98135.95;1717412;82;20303;-88
2021/08/15 04:33:18;;;;;;;;;;;;;;;21.04;76.37;98137.85;1722778;82;25042;-88
2021/08/15 04:35:46;;;;;;;;;;;;;;;21.13;76.40;98135.92;1695141;82;21880;-88
2021/08/15 04:38:12;;;;;;;;;;;;;;;21.16;76.42;98135.11;1718189;82;26730;-88
2021/08/15 04:40:38;;;;;;;;;;;;;;;21.16;76.43;98136.45;1721213;81;24840;-88
2021/08/15 04:43:07;;;;;;;;;;;;;;;21.22;76.49;98132.23;1721068;82;20310;-88
2021/08/15 04:45:34;;;;;;;;;;;;;;;21.28;76.53;98137.62;1722751;82;20294;-88
2021/08/15 04:48:02;;;;;;;;;;;;;;;21.36;76.53;98132.73;1720276;82;21926;-88
2021/08/15 04:50:28;;;;;;;;;;;;;;;21.40;76.56;98138.52;1716234;82;26856;-88
2021/08/15 04:52:57;;;;;;;;;;;;;;;21.37;76.54;98130.91;1718445;82;24509;-88
2021/08/15 04:55:26;;;;;;;;;;;;;;;21.39;76.60;98134.19;1718379;82;20221;-88
2021/08/15 04:57:52;;;;;;;;;;;;;;;21.45;76.65;98132.97;1717329;82;25081;-88
2021/08/15 05:00:18;;;;;;;;;;;;;;;21.50;76.66;98132.41;1723813;82;22086;-88
2021/08/15 05:02:44;;;;;;;;;;;;;;;21.52;76.67;98135.23;1719644;82;26735;-88
2021/08/15 05:05:11;;;;;;;;;;;;;;;21.56;76.68;98134.34;1718698;82;24434;-86
2021/08/15 05:07:37;;;;;;;;;;;;;;;21.60;76.71;98135.12;1718692;82;20503;-88
2021/08/15 05:10:04;;;;;;;;;;;;;;;21.61;76.71;98134.61;1719340;82;25148;-88
2021/08/15 05:12:31;;;;;;;;;;;;;;;21.67;76.77;98140.04;1719567;82;21964;-88
2021/08/15 05:15:01;;;;;;;;;;;;;;;21.77;76.82;98146.41;1717153;82;25990;-85
2021/08/15 05:17:25;;;;;;;;;;;;;;;21.84;76.88;98140.67;1717891;82;24420;-85
2021/08/15 05:19:51;;;;;;;;;;;;;;;21.91;76.89;98146.09;1718440;82;20338;-85
2021/08/15 05:22:22;;;;;;;;;;;;;;;21.96;76.92;98141.06;1719300;82;25768;-85
2021/08/15 05:24:48;;;;;;;;;;;;;;;22.04;76.92;98145.77;1716292;82;22072;-85
2021/08/15 05:27:14;;;;;;;;;;;;;;;22.09;76.95;98142.56;1717813;82;25886;-85
2021/08/15 05:29:40;;;;;;;;;;;;;;;22.15;76.95;98139.13;1713351;82;24471;-85
2021/08/15 05:32:06;;;;;;;;;;;;;;;22.18;76.98;98133.44;1721124;82;20985;-85
2021/08/15 05:34:32;;;;;;;;;;;;;;;22.26;77.00;98141.30;1718841;82;24959;-85
2021/08/15 05:36:58;;;;;;;;;;;;;;;22.33;77.01;98137.39;1717415;82;20842;-85
2021/08/15 05:39:24;;;;;;;;;;;;;;;22.38;77.02;98135.81;1716372;82;26162;-84
2021/08/15 05:41:53;;;;;;;;;;;;;;;22.44;77.00;98127.56;1715063;82;24495;-85
2021/08/15 05:44:19;;;;;;;;;;;;;;;22.52;77.03;98128.78;1717433;82;21856;-85
2021/08/15 05:46:45;;;;;;;;;;;;;;;22.58;77.05;98136.53;1717758;82;24957;-85
2021/08/15 05:49:12;;;;;;;;;;;;;;;22.64;77.04;98131.23;1711356;82;20324;-85
2021/08/15 05:51:38;;;;;;;;;;;;;;;22.67;76.98;98126.05;1717451;82;26074;-85
2021/08/15 05:54:04;;;;;;;;;;;;;;;22.76;76.95;98132.42;1717509;82;24511;-85
2021/08/15 05:56:33;;;;;;;;;;;;;;;22.81;76.98;98134.00;1722704;81;20406;-85
2021/08/15 05:58:58;;;;;;;;;;;;;;;22.90;76.96;98137.38;1729212;81;25033;-85
2021/08/15 06:01:33;;;;;;;;;;;;;;;22.97;76.92;98132.91;1726106;81;20263;-86
2021/08/15 06:04:03;;;;;;;;;;;;;;;23.05;76.91;98128.77;1703900;82;26665;-85
2021/08/15 06:06:29;;;;;;;;;;;;;;;23.18;76.88;98136.06;1727187;81;24463;-86
2021/08/15 06:08:55;;;;;;;;;;;;;;;23.27;76.87;98138.39;1730436;81;20298;-86
2021/08/15 06:11:21;;;;;;;;;;;;;;;23.31;76.84;98140.98;1727409;81;20310;-85
2021/08/15 06:13:48;;;;;;;;;;;;;;;23.42;76.84;98134.77;1726965;81;21433;-84
2021/08/15 06:16:15;;;;;;;;;;;;;;;23.49;76.80;98139.19;1727980;82;26113;-85
2021/08/15 06:18:45;;;;;;;;;;;;;;;23.57;76.79;98136.34;1727838;82;24514;-87
2021/08/15 06:21:09;;;;;;;;;;;;;;;23.63;76.78;98136.89;1724932;82;20228;-88
2021/08/15 06:23:37;;;;;;;;;;;;;;;23.67;76.74;98134.16;1725419;82;20288;-88
2021/08/15 06:26:04;;;;;;;;;;;;;;;23.71;76.68;98135.41;1727408;82;21956;-89
2021/08/15 06:28:30;;;;;;;;;;;;;;;23.79;76.61;98141.09;1726559;82;25981;-88
2021/08/15 06:30:56;;;;;;;;;;;;;;;23.86;76.58;98141.13;1729770;82;20271;-88
2021/08/15 06:33:22;;;;;;;;;;;;;;;23.90;76.57;98146.38;1729262;82;20539;-88
2021/08/15 06:35:49;;;;;;;;;;;;;;;23.92;76.53;98147.84;1726549;82;24949;-89
2021/08/15 06:38:15;;;;;;;;;;;;;;;23.94;76.51;98148.48;1724663;81;21986;-88
2021/08/15 06:40:41;;;;;;;;;;;;;;;24.00;76.48;98150.88;1728998;81;21009;-88
2021/08/15 06:43:08;;;;;;;;;;;;;;;24.03;76.44;98143.27;1719661;81;24441;-88
2021/08/15 06:45:38;;;;;;;;;;;;;;;24.10;76.41;98153.48;1727767;82;20295;-87
2021/08/15 06:48:05;;;;;;;;;;;;;;;24.16;76.36;98150.53;1727431;81;26504;-86
2021/08/15 06:50:32;;;;;;;;;;;;;;;24.20;76.32;98152.31;1724955;81;21920;-86
2021/08/15 06:52:58;;;;;;;;;;;;;;;24.24;76.28;98154.38;1753901;80;26153;-86
2021/08/15 06:55:26;;;;;;;;;;;;;;;24.25;76.24;98148.01;1719769;81;24529;-86
2021/08/15 06:57:52;;;;;;;;;;;;;;;24.30;76.18;98154.91;1751244;79;20140;-86
2021/08/15 07:00:18;;;;;;;;;;;;;;;24.34;76.12;98152.66;1734489;81;20253;-86
2021/08/15 07:02:47;;;;;;;;;;;;;;;24.36;76.01;98152.78;1729116;81;20933;-86
2021/08/15 07:05:12;;;;;;;;;;;;;;;24.43;75.91;98158.16;1729474;82;26014;-86
2021/08/15 07:07:38;;;;;;;;;;;;;;;24.48;75.85;98152.52;1727470;81;21249;-86
2021/08/15 07:10:04;;;;;;;;;;;;;;;24.54;75.81;98155.72;1726013;81;20301;-86
2021/08/15 07:12:30;;;;;;;;;;;;;;;24.59;75.77;98150.58;1728635;81;25046;-86
2021/08/15 07:14:56;;;;;;;;;;;;;;;24.67;75.71;98154.07;1730163;81;22016;-86
2021/08/15 07:17:23;;;;;;;;;;;;;;;24.75;75.71;98154.72;1751278;80;25925;-86
2021/08/15 07:19:49;;;;;;;;;;;;;;;24.82;75.65;98153.40;1711775;82;24658;-86
2021/08/15 07:22:18;;;;;;;;;;;;;;;24.90;75.58;98147.86;1735185;81;20466;-86
2021/08/15 07:24:44;;;;;;;;;;;;;;;24.95;75.49;98147.55;1754349;79;24900;-85
2021/08/15 07:27:10;;;;;;;;;;;;;;;25.04;75.40;98138.79;1723743;81;22042;-86
2021/08/15 07:29:36;;;;;;;;;;;;;;;25.15;75.29;98142.73;1730880;82;25932;-85
2021/08/15 07:32:02;;;;;;;;;;;;;;;25.17;75.12;98138.80;1731019;81;20327;-86
2021/08/15 07:34:28;;;;;;;;;;;;;;;25.34;75.00;98148.06;1730749;82;20334;-86
2021/08/15 07:36:54;;;;;;;;;;;;;;;25.46;74.90;98150.11;1730676;81;20277;-86
2021/08/15 07:39:20;;;;;;;;;;;;;;;25.55;74.78;98147.00;1730229;82;20271;-86
2021/08/15 07:41:46;;;;;;;;;;;;;;;25.65;74.69;98145.25;1728186;82;26010;-86
2021/08/15 07:44:13;;;;;;;;;;;;;;;25.74;74.57;98142.16;1733551;82;25132;-86
2021/08/15 07:46:39;;;;;;;;;;;;;;;25.85;74.42;98142.02;1727701;82;20478;-86
2021/08/15 07:49:05;;;;;;;;;;;;;;;25.95;74.30;98149.09;1724371;82;25713;-86
2021/08/15 07:51:31;;;;;;;;;;;;;;;26.05;74.17;98151.32;1755418;80;22627;-86
2021/08/15 07:53:57;;;;;;;;;;;;;;;26.11;74.02;98148.63;1756825;80;26171;-86
2021/08/15 07:56:23;;;;;;;;;;;;;;;26.18;73.87;98151.28;1736879;81;24404;-86
2021/08/15 07:58:50;;;;;;;;;;;;;;;26.22;73.61;98153.83;1726367;82;20881;-86
2021/08/15 08:01:18;;;;;;;;;;;;;;;26.28;73.32;98154.88;1734627;81;24472;-86
2021/08/15 08:03:45;;;;;;;;;;;;;;;26.33;73.09;98151.03;1730721;82;21934;-86
2021/08/15 08:06:15;;;;;;;;;;;;;;;26.36;72.88;98154.09;1732860;82;26019;-86
2021/08/15 08:08:39;;;;;;;;;;;;;;;26.41;72.75;98145.39;1755738;80;24423;-86
2021/08/15 08:11:05;;;;;;;;;;;;;;;26.47;72.66;98147.22;1737080;81;20316;-86
2021/08/15 08:13:37;;;;;;;;;;;;;;;26.53;72.49;98151.73;1766087;79;25645;-86
2021/08/15 08:16:05;;;;;;;;;;;;;;;26.56;72.38;98145.44;1764711;80;22811;-86
2021/08/15 08:18:31;;;;;;;;;;;;;;;26.61;72.10;98148.81;1754128;80;25980;-86
2021/08/15 08:20:57;;;;;;;;;;;;;;;26.67;71.86;98147.95;1759179;80;24440;-86
2021/08/15 08:23:23;;;;;;;;;;;;;;;26.70;71.63;98144.81;1758715;80;20291;-86
2021/08/15 08:25:49;;;;;;;;;;;;;;;26.76;71.45;98146.64;1758064;80;20239;-86
2021/08/15 08:28:15;;;;;;;;;;;;;;;26.84;71.37;98144.22;1759130;80;21969;-86
2021/08/15 08:30:46;;;;;;;;;;;;;;;26.92;71.30;98141.28;1760312;80;21018;-86
2021/08/15 08:33:15;;;;;;;;;;;;;;;26.98;71.22;98139.89;1758496;79;24453;-87
2021/08/15 08:35:44;;;;;;;;;;;;;;;27.00;70.91;98136.45;1759455;80;20217;-88
2021/08/15 08:38:10;;;;;;;;;;;;;;;27.01;70.67;98135.94;1758282;80;24968;-88
2021/08/15 08:40:36;;;;;;;;;;;;;;;27.08;70.51;98131.34;1732489;82;20302;-86
2021/08/15 08:43:02;;;;;;;;;;;;;;;27.14;70.35;98125.61;1759518;80;26983;-86
2021/08/15 08:45:29;;;;;;;;;;;;;;;27.20;70.17;98126.08;1761586;80;24483;-86
2021/08/15 08:47:55;;;;;;;;;;;;;;;27.26;70.01;98127.88;1727672;81;20270;-86
2021/08/15 08:50:23;;;;;;;;;;;;;;;27.30;69.80;98123.70;1724151;82;24969;-86
2021/08/15 08:52:52;;;;;;;;;;;;;;;27.37;69.58;98123.95;1765238;80;22269;-86
2021/08/15 08:55:18;;;;;;;;;;;;;;;27.40;69.39;98124.84;1757266;80;26178;-86
2021/08/15 08:57:45;;;;;;;;;;;;;;;27.46;69.18;98119.09;1721240;81;24693;-86
2021/08/15 09:00:12;;;;;;;;;;;;;;;27.51;69.04;98116.59;1718470;81;20288;-87
2021/08/15 09:02:38;;;;;;;;;;;;;;;27.56;68.91;98113.23;1749539;81;25051;-86
2021/08/15 09:05:08;;;;;;;;;;;;;;;27.59;68.75;98108.25;1723190;82;22770;-87
2021/08/15 09:07:35;;;;;;;;;;;;;;;27.62;68.62;98103.76;1702074;82;26074;-86
2021/08/15 09:10:04;;;;;;;;;;;;;;;27.69;68.50;98105.03;1724218;82;20255;-86
2021/08/15 09:12:39;;;;;;;;;;;;;;;27.77;68.42;98112.78;1720025;81;20470;-86
2021/08/15 09:15:12;;;;;;;;;;;;;;;27.83;68.37;98111.37;1717405;83;25820;-86
2021/08/15 09:17:39;;;;;;;;;;;;;;;27.94;68.34;98111.66;1718431;83;22089;-86
2021/08/15 09:20:06;;;;;;;;;;;;;;;27.96;68.01;98108.23;1715403;83;26104;-86
2021/08/15 09:22:35;;;;;;;;;;;;;;;28.02;67.87;98109.50;1718392;83;24513;-86
2021/08/15 09:25:13;;;;;;;;;;;;;;;28.08;67.72;98102.39;1721112;83;20249;-89
2021/08/15 09:27:54;;;;;;;;;;;;;;;28.11;67.35;98105.96;1715705;83;25027;-88
2021/08/15 09:30:22;;;;;;;;;;;;;;;28.15;67.06;98103.96;1751246;80;21993;-88
2021/08/15 09:32:59;;;;;;;;;;;;;;;28.21;66.88;98100.37;1718166;83;26745;-88
2021/08/15 09:35:29;;;;;;;;;;;;;;;28.27;66.70;98100.80;1715599;83;25157;-88
2021/08/15 09:37:56;;;;;;;;;;;;;;;28.34;66.63;98093.99;1746329;81;20282;-88
2021/08/15 09:40:31;;;;;;;;;;;;;;;28.39;66.43;98094.13;1753215;81;24281;-88
2021/08/15 09:42:58;;;;;;;;;;;;;;;28.41;66.07;98088.00;1746149;81;21495;-85
2021/08/15 09:45:32;;;;;;;;;;;;;;;28.46;65.86;98093.52;1731592;81;25978;-85
2021/08/15 09:48:00;;;;;;;;;;;;;;;28.49;65.64;98097.08;1741829;81;24563;-85
2021/08/15 09:50:29;;;;;;;;;;;;;;;28.53;65.36;98091.52;1751390;81;20298;-85
2021/08/15 09:52:55;;;;;;;;;;;;;;;28.61;65.09;98088.52;1719384;83;25034;-85
2021/08/15 09:55:21;;;;;;;;;;;;;;;28.67;64.62;98088.12;1749065;81;20225;-85
2021/08/15 09:57:48;;;;;;;;;;;;;;;28.75;64.33;98089.70;1725100;81;26092;-85
2021/08/15 10:00:23;;;;;;;;;;;;;;;28.77;64.00;98087.58;1740285;81;24453;-85
2021/08/15 10:02:49;;;;;;;;;;;;;;;28.80;63.59;98082.56;1746376;81;20310;-85
2021/08/15 10:05:15;;;;;;;;;;;;;;;28.86;63.20;98078.13;1744108;81;21214;-85
2021/08/15 10:07:43;;;;;;;;;;;;;;;28.89;62.96;98073.08;1741565;80;21982;-86
2021/08/15 10:10:11;;;;;;;;;;;;;;;28.89;62.39;98074.95;1740980;81;26062;-85
2021/08/15 10:12:37;;;;;;;;;;;;;;;28.90;61.88;98076.07;1740641;81;24686;-85
2021/08/15 10:15:04;;;;;;;;;;;;;;;28.90;61.36;98069.34;1740468;81;20281;-85
2021/08/15 10:17:38;;;;;;;;;;;;;;;28.91;60.92;98072.86;1741805;81;25070;-86
2021/08/15 10:20:05;;;;;;;;;;;;;;;28.90;60.33;98067.99;1737937;81;21959;-86
2021/08/15 10:22:32;;;;;;;;;;;;;;;28.89;59.69;98066.34;1744543;81;26752;-85
2021/08/15 10:25:07;;;;;;;;;;;;;;;28.92;59.35;98067.73;1739759;82;24536;-86
2021/08/15 10:27:40;;;;;;;;;;;;;;;28.94;58.96;98063.77;1743746;81;20228;-86
2021/08/15 10:30:26;;;;;;;;;;;;;;;28.99;58.40;98065.23;1739048;81;25221;-86
2021/08/15 10:32:59;;;;;;;;;;;;;;;29.04;58.04;98057.27;1712943;82;20555;-86
2021/08/15 10:35:26;;;;;;;;;;;;;;;29.11;57.73;98055.28;1740570;81;26827;-86
2021/08/15 10:37:56;;;;;;;;;;;;;;;29.18;57.54;98049.78;1741309;81;24404;-86
2021/08/15 10:40:47;;;;;;;;;;;;;;;29.24;57.26;98047.46;1740285;81;20150;-86
2021/08/15 10:43:12;;;;;;;;;;;;;;;29.26;56.84;98051.28;1741023;81;25090;-87
2021/08/15 10:45:39;;;;;;;;;;;;;;;29.31;56.50;98049.52;1742009;81;21926;-87
2021/08/15 10:48:12;;;;;;;;;;;;;;;29.38;56.36;98038.12;1740061;82;27268;-86
2021/08/15 10:50:59;;;;;;;;;;;;;;;29.43;56.09;98038.23;1740896;81;24513;-86
2021/08/15 10:53:32;;;;;;;;;;;;;;;29.43;55.75;98038.75;1741427;81;20245;-86
2021/08/15 10:56:04;;;;;;;;;;;;;;;29.44;55.46;98034.48;1736060;82;20981;-86
2021/08/15 10:58:43;;;;;;;;;;;;;;;29.46;55.11;98029.65;1752146;80;22622;-90
2021/08/15 11:01:12;;;;;;;;;;;;;;;29.51;54.92;98035.70;1765544;80;26790;-90
2021/08/15 11:03:50;;;;;;;;;;;;;;;29.51;54.61;98031.66;1742106;81;24107;-89
2021/08/15 11:06:39;;;;;;;;;;;;;;;29.51;54.38;98031.66;1740552;81;20238;-87
2021/08/15 11:09:14;;;;;;;;;;;;;;;29.51;54.10;98025.70;1747839;80;24978;-86
2021/08/15 11:11:57;;;;;;;;;;;;;;;29.56;53.91;98029.59;1751291;81;22047;-87
2021/08/15 11:14:32;;;;;;;;;;;;;;;29.56;53.68;98019.63;1687763;84;26760;-87
2021/08/15 11:17:18;;;;;;;;;;;;;;;29.60;53.47;98028.05;1706955;82;24537;-87
2021/08/15 11:19:47;;;;;;;;;;;;;;;29.61;53.18;98025.13;1737266;82;20361;-87
2021/08/15 11:22:26;;;;;;;;;;;;;;;29.66;52.98;98022.53;1734082;81;25163;-88
2021/08/15 11:24:54;;;;;;;;;;;;;;;29.70;52.98;98018.28;1735541;82;22857;-87
2021/08/15 11:27:31;;;;;;;;;;;;;;;29.75;52.94;98014.86;1734696;82;26073;-86
2021/08/15 11:30:04;;;;;;;;;;;;;;;29.80;52.80;98009.04;1731324;82;24498;-86
2021/08/15 11:32:32;;;;;;;;;;;;;;;29.88;52.76;98018.11;1736165;82;20216;-86
2021/08/15 11:34:59;;;;;;;;;;;;;;;29.91;52.39;98006.03;1734910;82;24945;-85
2021/08/15 11:37:27;;;;;;;;;;;;;;;29.91;52.08;98007.38;1740856;81;22569;-85
2021/08/15 11:39:53;;;;;;;;;;;;;;;29.97;51.90;98012.34;1729543;81;26016;-84
2021/08/15 11:42:23;;;;;;;;;;;;;;;30.01;51.69;98006.75;1755012;81;24479;-89
2021/08/15 11:44:54;;;;;;;;;;;;;;;30.04;51.52;98007.62;1738637;81;20222;-89
2021/08/15 11:47:21;;;;;;;;;;;;;;;30.09;51.35;98001.80;1754772;81;24923;-88
2021/08/15 11:49:48;;;;;;;;;;;;;;;30.10;51.11;98006.14;1737068;82;22136;-89
2021/08/15 11:52:15;;;;;;;;;;;;;;;30.16;50.97;98003.00;1734961;81;26091;-89
2021/08/15 11:54:49;;;;;;;;;;;;;;;30.21;50.84;98007.14;1760732;80;24401;-89
2021/08/15 11:57:15;;;;;;;;;;;;;;;30.25;50.66;98002.36;1750255;81;20269;-89
2021/08/15 11:59:45;;;;;;;;;;;;;;;30.33;50.46;98007.34;1736805;82;25144;-89
2021/08/15 12:02:18;;;;;;;;;;;;;;;30.38;50.22;98005.81;1733285;82;22244;-89
2021/08/15 12:04:45;;;;;;;;;;;;;;;30.41;50.12;98005.31;1735933;82;26047;-90
2021/08/15 12:07:12;;;;;;;;;;;;;;;30.46;50.04;98004.05;1734262;82;24793;-89
2021/08/15 12:09:38;;;;;;;;;;;;;;;30.48;49.78;97988.45;1734832;82;20309;-89
2021/08/15 12:12:05;;;;;;;;;;;;;;;30.54;49.68;97983.42;1738503;82;25027;-89
2021/08/15 12:14:33;;;;;;;;;;;;;;;30.60;49.75;97977.83;1734931;82;22222;-89
2021/08/15 12:16:59;;;;;;;;;;;;;;;30.67;49.72;97983.08;1734371;82;26036;-89
2021/08/15 12:19:30;;;;;;;;;;;;;;;30.67;49.30;97978.49;1734602;82;24526;-90
2021/08/15 12:24:40;;;;;;;;;;;;;;;30.73;48.94;97969.94;1731428;82;25025;-90
2021/08/15 12:27:09;;;;;;;;;;;;;;;30.77;48.92;97972.98;1733200;82;21960;-89
2021/08/15 12:29:44;;;;;;;;;;;;;;;30.79;48.87;97973.00;1735512;82;26777;-89
2021/08/15 12:32:12;;;;;;;;;;;;;;;30.82;48.73;97968.47;1736882;82;24554;-90
2021/08/15 12:34:42;;;;;;;;;;;;;;;30.85;48.53;97969.31;1740360;81;20368;-90
2021/08/15 12:37:17;;;;;;;;;;;;;;;30.88;48.32;97963.39;1732877;81;25550;-89
2021/08/15 12:39:44;;;;;;;;;;;;;;;30.88;48.04;97957.98;1762938;79;22229;-90
2021/08/15 12:42:21;;;;;;;;;;;;;;;30.88;47.82;97955.29;1765498;80;25969;-91
2021/08/15 12:44:50;;;;;;;;;;;;;;;30.87;47.63;97958.27;1768636;80;25265;-90
2021/08/15 12:47:18;;;;;;;;;;;;;;;30.88;47.56;97948.53;1728721;81;20612;-91
2021/08/15 12:49:45;;;;;;;;;;;;;;;30.89;47.46;97940.72;1764063;80;24997;-91
2021/08/15 12:52:16;;;;;;;;;;;;;;;30.90;47.15;97946.41;1740700;81;22120;-91
2021/08/15 12:55:01;;;;;;;;;;;;;;;30.90;46.91;97943.70;1742845;81;26087;-91